Time;durP1;ratioP1;P1;durP2;ratioP2;P2;SDS_P1;SDS_P2;PMS_P1;PMS_P2;Temp;Humidity;BMP_temperature;BMP_pressure;BME280_temperature;BME280_humidity;BME280_pressure;Samples;Min_cycle;Max_cycle;Signal;HPM_P1;HPM_P2
2023/09/21 00:01:12;;;;;;;0.75;0.75;;;;;;;17.47;90.66;97201.97;5105201;28;20051;-68
2023/09/21 00:03:39;;;;;;;0.80;0.80;;;;;;;16.75;90.45;97108.84;5105199;28;20058;-69
2023/09/21 00:06:06;;;;;;;0.70;0.70;;;;;;;17.35;90.83;97198.81;5105079;28;20446;-69
2023/09/21 00:08:34;;;;;;;0.75;0.75;;;;;;;17.31;91.38;97192.47;5105455;28;20047;-69
2023/09/21 00:11:03;;;;;;;0.70;0.70;;;;;;;17.08;91.99;97175.41;5104724;28;20460;-69
2023/09/21 00:13:31;;;;;;;0.70;0.70;;;;;;;17.21;92.10;97198.94;5105273;27;20113;-69
2023/09/21 00:15:59;;;;;;;0.70;0.70;;;;;;;17.23;91.72;97193.72;5105129;28;20058;-69
2023/09/21 00:18:27;;;;;;;0.80;0.80;;;;;;;16.86;92.85;97159.94;5103649;28;20047;-68
2023/09/21 00:20:54;;;;;;;0.70;0.70;;;;;;;17.17;92.13;97189.75;5104593;28;20079;-69
2023/09/21 00:23:25;;;;;;;0.70;0.70;;;;;;;17.20;91.86;97200.91;5104856;28;20051;-68
2023/09/21 00:26:00;;;;;;;0.70;0.70;;;;;;;17.15;91.72;97197.78;5102943;28;20136;-69
2023/09/21 00:28:28;;;;;;;0.70;0.70;;;;;;;17.02;92.01;97186.25;5103177;28;20063;-70
2023/09/21 00:30:57;;;;;;;0.70;0.70;;;;;;;16.99;92.95;97186.25;5103239;28;20051;-70
2023/09/21 00:33:28;;;;;;;0.70;0.70;;;;;;;17.05;91.73;97187.44;5104612;28;20064;-69
2023/09/21 00:35:58;;;;;;;0.70;0.70;;;;;;;16.94;92.18;97195.09;5104229;28;20056;-70
2023/09/21 00:38:26;;;;;;;0.70;0.70;;;;;;;16.77;93.31;97195.97;5104539;28;20105;-70
2023/09/21 00:40:58;;;;;;;0.70;0.70;;;;;;;16.21;92.90;97088.75;5104273;28;20048;-69
2023/09/21 00:43:25;;;;;;;0.70;0.70;;;;;;;16.90;92.83;97199.91;5102889;28;20055;-70
2023/09/21 00:45:53;;;;;;;0.70;0.70;;;;;;;16.29;92.45;97090.31;5103774;28;20074;-69
2023/09/21 00:48:25;;;;;;;0.70;0.70;;;;;;;16.50;92.25;97118.16;5104897;27;20052;-70
2023/09/21 00:50:57;;;;;;;0.70;0.70;;;;;;;16.90;92.56;97194.31;5104175;28;20098;-70
2023/09/21 00:53:29;;;;;;;0.70;0.70;;;;;;;16.88;92.68;97188.31;5104681;28;20051;-70
2023/09/21 00:55:59;;;;;;;0.70;0.70;;;;;;;16.89;92.35;97192.72;5104320;28;20155;-69
2023/09/21 00:58:26;;;;;;;0.70;0.70;;;;;;;16.77;92.77;97202.34;5104023;28;20057;-69
2023/09/21 01:00:55;;;;;;;0.70;0.70;;;;;;;16.68;93.01;97190.03;5103561;28;20058;-69
2023/09/21 01:03:27;;;;;;;0.60;0.60;;;;;;;16.51;94.04;97189.69;5104388;28;20051;-69
2023/09/21 01:05:55;;;;;;;0.70;0.70;;;;;;;16.20;95.03;97154.22;5103979;28;20051;-70
2023/09/21 01:08:28;;;;;;;0.80;0.80;;;;;;;16.50;94.42;97185.28;5103798;28;20062;-69
2023/09/21 01:10:57;;;;;;;0.70;0.70;;;;;;;16.50;94.69;97188.09;5103879;28;20087;-69
2023/09/21 01:13:26;;;;;;;0.70;0.70;;;;;;;16.41;95.42;97184.91;5103878;28;20550;-69
2023/09/21 01:16:01;;;;;;;0.70;0.70;;;;;;;16.45;95.52;97185.69;5102281;28;20056;-69
2023/09/21 01:18:27;;;;;;;0.70;0.70;;;;;;;16.29;94.88;97143.41;5102744;28;20204;-69
2023/09/21 01:20:55;;;;;;;0.70;0.70;;;;;;;16.59;94.56;97179.28;5102491;28;20143;-69
2023/09/21 01:23:52;;;;;;;0.70;0.70;;;;;;;16.53;94.11;97178.88;5104482;28;20051;-69
2023/09/21 01:26:22;;;;;;;0.63;0.63;;;;;;;13.96;94.61;96814.16;5103703;28;20774;-70
2023/09/21 01:28:49;;;;;;;0.70;0.70;;;;;;;16.39;95.41;97164.94;5103375;28;20142;-69
2023/09/21 01:31:17;;;;;;;0.70;0.70;;;;;;;16.49;95.31;97180.91;5103696;28;20052;-70
2023/09/21 01:33:44;;;;;;;0.70;0.70;;;;;;;16.48;95.10;97189.69;5103677;28;20043;-69
2023/09/21 01:36:16;;;;;;;0.70;0.70;;;;;;;16.37;96.06;97175.75;5102205;28;20127;-69
2023/09/21 01:38:46;;;;;;;0.70;0.70;;;;;;;16.05;95.28;97127.53;5103953;28;20047;-70
2023/09/21 01:41:18;;;;;;;0.80;0.80;;;;;;;16.02;94.32;97105.97;5083573;28;20055;-70
2023/09/21 01:43:45;;;;;;;0.70;0.70;;;;;;;16.39;95.12;97170.53;5083652;28;20131;-69
2023/09/21 01:46:17;;;;;;;0.70;0.70;;;;;;;16.35;94.56;97158.56;5083312;28;20048;-69
2023/09/21 01:48:44;;;;;;;0.60;0.60;;;;;;;16.43;94.52;97164.91;5098455;28;20079;-69
2023/09/21 01:51:12;;;;;;;0.70;0.70;;;;;;;16.48;94.34;97162.53;5083425;28;20084;-69
2023/09/21 01:53:39;;;;;;;0.70;0.70;;;;;;;16.10;93.75;97101.97;5083211;28;20055;-69
2023/09/21 01:56:07;;;;;;;0.70;0.70;;;;;;;16.41;94.19;97161.72;5098608;28;20139;-69
2023/09/21 01:58:33;;;;;;;0.65;0.65;;;;;;;16.44;94.05;97164.53;5084619;28;20581;-68
2023/09/21 02:01:01;;;;;;;0.70;0.70;;;;;;;16.30;94.11;97170.16;5086908;28;20047;-69
2023/09/21 02:03:29;;;;;;;0.70;0.70;;;;;;;16.34;94.30;97162.53;5086855;28;20048;-70
2023/09/21 02:05:59;;;;;;;0.70;0.70;;;;;;;16.42;93.64;97163.34;5087235;28;20052;-70
2023/09/21 02:08:26;;;;;;;0.70;0.70;;;;;;;16.29;94.55;97160.19;5087031;28;20577;-70
2023/09/21 02:10:54;;;;;;;0.70;0.70;;;;;;;15.62;93.95;97047.81;5087364;28;20059;-71
2023/09/21 02:13:21;;;;;;;0.65;0.65;;;;;;;16.16;94.90;97158.22;5087208;28;20128;-69
2023/09/21 02:15:51;;;;;;;0.70;0.70;;;;;;;16.15;94.74;97165.81;5087196;28;20051;-70
2023/09/21 02:18:19;;;;;;;0.70;0.70;;;;;;;16.11;94.63;97159.44;5086879;28;20052;-70
2023/09/21 02:20:50;;;;;;;0.70;0.70;;;;;;;16.05;94.90;97166.66;5087168;28;20062;-70
2023/09/21 02:23:21;;;;;;;0.70;0.70;;;;;;;16.05;95.10;97147.09;5086822;28;20671;-70
2023/09/21 02:25:48;;;;;;;0.60;0.60;;;;;;;15.63;95.00;97099.69;5086850;28;20084;-70
2023/09/21 02:28:15;;;;;;;0.70;0.70;;;;;;;16.04;94.96;97145.50;5087351;28;20040;-70
2023/09/21 02:30:47;;;;;;;0.70;0.70;;;;;;;15.98;95.94;97144.28;5085204;28;20122;-70
2023/09/21 02:33:18;;;;;;;0.60;0.60;;;;;;;16.04;95.81;97144.69;5086576;28;20052;-70
2023/09/21 02:35:46;;;;;;;0.70;0.70;;;;;;;16.00;95.93;97147.50;5105166;28;20685;-70
2023/09/21 02:38:17;;;;;;;0.70;0.70;;;;;;;16.05;94.67;97143.47;5108799;27;20110;-69
2023/09/21 02:40:45;;;;;;;0.75;0.75;;;;;;;15.83;93.96;97117.59;5109824;27;20125;-70
2023/09/21 02:43:13;;;;;;;0.70;0.70;;;;;;;16.02;93.69;97142.31;5105454;28;20051;-70
2023/09/21 02:45:40;;;;;;;0.70;0.70;;;;;;;16.01;93.97;97153.88;5106417;28;20131;-70
2023/09/21 02:48:08;;;;;;;0.70;0.70;;;;;;;16.05;93.57;97149.88;5106558;28;20057;-70
2023/09/21 02:50:35;;;;;;;0.70;0.70;;;;;;;16.01;93.63;97137.91;5106414;28;20046;-70
2023/09/21 02:53:09;;;;;;;0.70;0.70;;;;;;;16.07;94.06;97144.69;5106958;28;20044;-69
2023/09/21 02:55:38;;;;;;;0.70;0.70;;;;;;;16.08;94.56;97153.84;5106868;28;20043;-70
2023/09/21 02:58:10;;;;;;;0.70;0.70;;;;;;;15.99;95.70;97154.28;5105340;28;20056;-69
2023/09/21 03:00:45;;;;;;;0.70;0.70;;;;;;;16.07;94.56;97153.06;5104871;28;20627;-70
2023/09/21 03:03:21;;;;;;;0.70;0.70;;;;;;;15.90;95.85;97158.69;5106903;28;20047;-70
2023/09/21 03:05:49;;;;;;;0.65;0.65;;;;;;;14.09;95.59;96871.03;5104919;28;20126;-70
2023/09/21 03:08:17;;;;;;;0.70;0.70;;;;;;;15.92;95.10;97157.09;5106689;28;20465;-69
2023/09/21 03:10:49;;;;;;;0.68;0.68;;;;;;;15.92;95.49;97156.28;5106105;28;20174;-70
2023/09/21 03:13:19;;;;;;;0.60;0.60;;;;;;;15.54;96.57;97106.91;5106692;28;20060;-70
2023/09/21 03:15:48;;;;;;;0.70;0.70;;;;;;;15.79;97.06;97147.53;5106122;28;20052;-69
2023/09/21 03:18:16;;;;;;;0.70;0.70;;;;;;;15.80;96.66;97148.34;5106479;28;20067;-70
2023/09/21 03:20:44;;;;;;;0.70;0.70;;;;;;;15.84;96.99;97144.31;5105548;28;20055;-70
2023/09/21 03:23:13;;;;;;;0.73;0.73;;;;;;;15.82;95.82;97140.34;5105946;28;20078;-70
2023/09/21 03:25:42;;;;;;;0.70;0.70;;;;;;;15.68;96.52;97152.34;5104090;28;20518;-69
2023/09/21 03:28:13;;;;;;;0.70;0.70;;;;;;;15.71;97.00;97145.94;5106321;28;20052;-70
2023/09/21 03:30:47;;;;;;;0.70;0.70;;;;;;;15.67;96.84;97161.09;5104383;28;20100;-70
2023/09/21 03:33:16;;;;;;;0.63;0.63;;;;;;;15.52;97.53;97160.34;5106040;28;20497;-70
2023/09/21 03:35:44;;;;;;;0.60;0.60;;;;;;;15.53;97.35;97153.56;5093274;28;20048;-68
2023/09/21 03:38:18;;;;;;;0.70;0.70;;;;;;;15.45;97.66;97143.59;5083703;28;20561;-70
2023/09/21 03:40:45;;;;;;;0.60;0.60;;;;;;;15.49;98.21;97155.53;5085356;28;20055;-69
2023/09/21 03:43:12;;;;;;;0.60;0.60;;;;;;;15.53;98.01;97161.94;5085123;28;20445;-70
2023/09/21 03:45:42;;;;;;;0.60;0.60;;;;;;;15.58;97.76;97152.34;5085014;28;20502;-69
2023/09/21 03:48:10;;;;;;;0.60;0.60;;;;;;;15.45;97.30;97132.41;5085364;28;20054;-70
2023/09/21 03:50:39;;;;;;;0.60;0.60;;;;;;;15.22;96.93;97081.78;5084877;28;20055;-71
2023/09/21 03:53:10;;;;;;;0.60;0.60;;;;;;;15.25;96.58;97100.50;5085545;28;20168;-70
2023/09/21 03:55:39;;;;;;;0.65;0.65;;;;;;;15.57;96.66;97148.75;5083762;28;20051;-71
2023/09/21 03:58:07;;;;;;;0.60;0.60;;;;;;;15.12;96.29;97079.78;5084124;28;20128;-70
2023/09/21 04:03:04;;;;;;;0.68;0.68;;;;;;;15.27;94.99;97109.25;5084832;28;20131;-68
2023/09/21 04:05:31;;;;;;;0.70;0.70;;;;;;;15.56;94.75;97138.78;5083262;28;20062;-69
2023/09/21 04:07:58;;;;;;;0.70;0.70;;;;;;;15.12;94.45;97065.81;5083233;28;20513;-70
2023/09/21 04:10:26;;;;;;;0.70;0.70;;;;;;;15.56;95.03;97147.16;5084554;28;20052;-69
2023/09/21 04:12:56;;;;;;;0.70;0.70;;;;;;;15.69;93.42;97148.34;5084457;28;20435;-69
2023/09/21 04:15:28;;;;;;;0.70;0.70;;;;;;;15.63;93.46;97149.16;5084414;28;20124;-71
2023/09/21 04:17:57;;;;;;;0.60;0.60;;;;;;;15.65;93.16;97147.56;5084664;28;20052;-70
2023/09/21 04:20:24;;;;;;;0.60;0.60;;;;;;;15.60;93.75;97159.13;5084187;28;20051;-69
2023/09/21 04:22:55;;;;;;;0.60;0.60;;;;;;;15.67;93.93;97173.09;5083021;28;20048;-68
2023/09/21 04:25:22;;;;;;;0.70;0.70;;;;;;;15.77;92.60;97158.31;5084360;28;20091;-71
2023/09/21 04:27:51;;;;;;;0.60;0.60;;;;;;;15.62;94.25;97159.53;5084213;28;20093;-69
2023/09/21 04:30:21;;;;;;;0.65;0.65;;;;;;;15.87;93.28;97157.50;5082758;28;20910;-70
2023/09/21 04:32:49;;;;;;;0.60;0.60;;;;;;;15.92;93.38;97168.25;5083275;28;20126;-71
2023/09/21 04:35:18;;;;;;;0.70;0.70;;;;;;;15.65;93.37;97107.69;5090379;28;20055;-70
2023/09/21 04:37:47;;;;;;;0.70;0.70;;;;;;;16.05;92.68;97161.06;5103339;28;20051;-70
2023/09/21 04:40:14;;;;;;;0.65;0.65;;;;;;;16.09;90.90;97167.41;5102943;28;20146;-70
2023/09/21 04:42:45;;;;;;;0.65;0.65;;;;;;;16.12;91.59;97172.19;5104791;28;20104;-70
2023/09/21 04:45:14;;;;;;;0.70;0.70;;;;;;;15.92;92.47;97139.50;5104663;28;20071;-72
2023/09/21 04:47:43;;;;;;;0.70;0.70;;;;;;;16.23;91.68;97167.38;5103327;28;20207;-71
2023/09/21 04:50:11;;;;;;;0.70;0.70;;;;;;;16.29;92.16;97165.78;5104138;28;20047;-71
2023/09/21 04:52:37;;;;;;;0.70;0.70;;;;;;;16.37;91.73;97178.53;5102771;28;20053;-69
2023/09/21 04:55:08;;;;;;;0.70;0.70;;;;;;;16.45;91.30;97174.50;5102793;28;20040;-72
2023/09/21 04:57:35;;;;;;;0.70;0.70;;;;;;;16.59;90.94;97162.50;5104366;28;20048;-71
2023/09/21 05:00:09;;;;;;;0.70;0.70;;;;;;;16.78;90.44;97164.00;5102185;28;20058;-68
2023/09/21 05:02:36;;;;;;;0.70;0.70;;;;;;;16.91;90.18;97162.31;5103827;28;20455;-66
2023/09/21 05:05:04;;;;;;;0.70;0.70;;;;;;;16.15;90.02;97037.25;5101605;28;20128;-71
2023/09/21 05:07:30;;;;;;;0.80;0.80;;;;;;;16.98;90.49;97173.47;5097991;28;20071;-67
2023/09/21 05:09:57;;;;;;;0.70;0.70;;;;;;;17.06;89.88;97172.22;5100700;27;20044;-63
2023/09/21 05:12:27;;;;;;;0.70;0.70;;;;;;;16.97;89.28;97143.88;5100251;28;20126;-63
2023/09/21 05:14:54;;;;;;;0.70;0.70;;;;;;;16.64;89.29;97076.13;5103149;28;20055;-62
2023/09/21 05:17:21;;;;;;;0.77;0.77;;;;;;;17.35;89.37;97182.03;5100952;28;20047;-64
2023/09/21 05:19:49;;;;;;;0.70;0.70;;;;;;;17.08;89.25;97088.63;5097377;28;20052;-70
2023/09/21 05:22:16;;;;;;;0.80;0.80;;;;;;;17.84;88.11;97160.03;5101002;28;20646;-61
2023/09/21 05:24:43;;;;;;;0.80;0.80;;;;;;;18.01;86.84;97163.88;5100648;28;20757;-68
2023/09/21 05:27:11;;;;;;;0.80;0.80;;;;;;;18.09;86.32;97165.38;5099095;28;20445;-60
2023/09/21 05:29:40;;;;;;;0.80;0.80;;;;;;;18.02;85.48;97120.59;5101892;28;20058;-60
2023/09/21 05:32:07;;;;;;;0.80;0.80;;;;;;;17.79;85.12;97103.63;5102608;28;20473;-66
2023/09/21 05:34:33;;;;;;;0.80;0.80;;;;;;;18.45;85.16;97161.00;5106278;28;20043;-73
2023/09/21 05:37:00;;;;;;;0.70;0.70;;;;;;;18.11;83.85;97068.41;5100467;28;20120;-60
2023/09/21 05:39:27;;;;;;;0.80;0.80;;;;;;;18.42;83.54;97107.72;5105288;28;20056;-63
2023/09/21 05:41:54;;;;;;;0.82;0.82;;;;;;;18.99;82.70;97150.66;5106458;28;20067;-61
2023/09/21 05:44:24;;;;;;;0.80;0.80;;;;;;;19.01;82.13;97134.19;5106104;28;20633;-63
2023/09/21 05:46:52;;;;;;;0.80;0.80;;;;;;;18.84;81.65;97087.53;5101046;28;20054;-61
2023/09/21 05:49:27;;;;;;;0.82;0.82;;;;;;;18.87;80.24;97042.56;5125130;27;20051;-65
2023/09/21 05:51:56;;;;;;;0.82;0.82;;;;;;;18.02;79.94;96932.78;5126397;27;20075;-61
2023/09/21 05:54:26;;;;;;;0.80;0.80;;;;;;;19.31;80.09;97104.06;5105974;27;20052;-70
2023/09/21 05:56:54;;;;;;;0.85;0.85;;;;;;;19.82;79.18;97144.16;5106931;28;20122;-62
2023/09/21 05:59:22;;;;;;;0.90;0.90;;;;;;;19.50;78.56;97086.50;5106762;28;20445;-61
2023/09/21 06:01:49;;;;;;;0.80;0.80;;;;;;;19.95;77.58;97139.50;5106362;28;20047;-66
2023/09/21 06:04:17;;;;;;;0.85;0.85;;;;;;;20.23;76.28;97167.13;5106527;28;20059;-67
2023/09/21 06:06:46;;;;;;;0.85;0.85;;;;;;;20.62;75.96;97150.28;5090473;27;20059;-59
2023/09/21 06:09:18;;;;;;;0.80;0.80;;;;;;;20.61;74.36;97114.91;5103408;28;20058;-63
2023/09/21 06:11:46;;;;;;;0.80;0.80;;;;;;;20.89;74.35;97148.09;5119326;27;20098;-65
2023/09/21 06:14:13;;;;;;;0.95;0.95;;;;;;;21.00;74.35;97154.31;5105783;28;20445;-68
2023/09/21 06:16:42;;;;;;;0.80;0.80;;;;;;;21.09;74.46;97146.06;5096808;28;20052;-67
2023/09/21 06:19:11;;;;;;;0.80;0.80;;;;;;;21.47;73.55;97149.97;5105651;28;20175;-63
2023/09/21 06:21:41;;;;;;;1.00;1.00;;;;;;;21.22;71.70;97042.72;5100392;27;20107;-74
2023/09/21 06:24:09;;;;;;;0.90;0.90;;;;;;;22.11;71.10;97144.31;5099323;28;20055;-61
2023/09/21 06:26:37;;;;;;;1.00;1.00;;;;;;;22.41;67.98;97141.09;5105565;28;20054;-67
2023/09/21 06:29:04;;;;;;;1.00;1.00;;;;;;;22.78;67.34;97113.47;5105500;28;20063;-67
2023/09/21 06:31:30;;;;;;;1.00;1.00;;;;;;;21.98;65.30;96960.13;5104820;28;20051;-72
2023/09/21 06:33:58;;;;;;;1.00;1.00;;;;;;;23.36;65.20;97162.97;5104866;27;20056;-72
2023/09/21 06:36:28;;;;;;;1.20;1.20;;;;;;;23.36;64.22;97148.81;5105228;28;20056;-61
2023/09/21 06:38:59;;;;;;;1.00;1.00;;;;;;;23.69;64.59;97144.50;5104706;28;20097;-65
2023/09/21 06:41:28;;;;;;;1.08;1.08;;;;;;;23.93;62.72;97137.25;5105595;28;20047;-60
2023/09/21 06:43:55;;;;;;;1.08;1.08;;;;;;;23.31;62.52;97092.84;5104126;28;20044;-58
2023/09/21 06:46:23;;;;;;;1.20;1.20;;;;;;;23.75;63.57;97148.34;5091011;28;20048;-59
2023/09/21 06:48:49;;;;;;;1.13;1.13;;;;;;;23.67;62.58;97113.03;5103664;27;20079;-66
2023/09/21 06:51:16;;;;;;;1.10;1.10;;;;;;;24.06;62.10;97146.50;5102453;27;20043;-60
2023/09/21 06:53:43;;;;;;;1.25;1.25;;;;;;;23.95;62.06;97151.69;5103793;28;20104;-62
2023/09/21 06:56:11;;;;;;;1.38;1.38;;;;;;;24.05;62.41;97155.44;5120946;27;20065;-63
2023/09/21 06:58:38;;;;;;;1.05;1.05;;;;;;;23.83;61.84;97121.41;5102131;27;20403;-66
2023/09/21 07:01:05;;;;;;;1.33;1.33;;;;;;;24.06;62.13;97157.03;5101093;27;20129;-68
2023/09/21 07:03:32;;;;;;;1.20;1.20;;;;;;;24.21;61.10;97146.81;5105033;28;20052;-61
2023/09/21 07:06:00;;;;;;;1.20;1.20;;;;;;;23.72;62.31;97135.13;5104253;28;20047;-61
2023/09/21 07:08:27;;;;;;;1.15;1.15;;;;;;;23.96;60.38;97139.16;5105815;28;20051;-63
2023/09/21 07:10:54;;;;;;;1.30;1.30;;;;;;;23.62;62.09;97091.00;5104939;28;20425;-61
2023/09/21 07:13:20;;;;;;;1.10;1.10;;;;;;;24.02;61.60;97145.84;5098192;28;20654;-65
2023/09/21 07:15:52;;;;;;;1.20;1.20;;;;;;;23.50;61.45;97086.16;5104967;28;20742;-67
2023/09/21 07:18:20;;;;;;;1.20;1.20;;;;;;;23.36;62.55;97095.88;5103339;28;20830;-68
2023/09/21 07:20:47;;;;;;;1.10;1.10;;;;;;;23.98;62.89;97150.03;5103909;28;20104;-68
2023/09/21 07:23:14;;;;;;;1.20;1.20;;;;;;;23.63;60.15;97112.38;5101895;28;20043;-64
2023/09/21 07:25:41;;;;;;;1.25;1.25;;;;;;;23.93;61.57;97142.91;5103791;28;20056;-61
2023/09/21 07:28:08;;;;;;;1.38;1.38;;;;;;;24.27;59.85;97140.09;5103460;28;20619;-63
2023/09/21 07:30:38;;;;;;;1.10;1.10;;;;;;;24.63;58.84;97157.41;5097009;28;20414;-61
2023/09/21 07:33:06;;;;;;;1.20;1.20;;;;;;;22.87;58.71;96913.00;5100084;28;20151;-72
2023/09/21 07:35:33;;;;;;;1.17;1.17;;;;;;;24.62;58.14;97144.50;5105366;28;20516;-66
2023/09/21 07:38:00;;;;;;;1.40;1.40;;;;;;;24.51;58.15;97081.78;5103516;28;20067;-63
2023/09/21 07:40:28;;;;;;;1.30;1.30;;;;;;;25.37;57.02;97159.50;5103915;27;20079;-62
2023/09/21 07:42:56;;;;;;;1.20;1.20;;;;;;;25.07;55.73;97085.28;5103471;28;20480;-71
2023/09/21 07:45:24;;;;;;;1.50;1.50;;;;;;;25.66;53.89;97157.09;5104306;28;20138;-64
2023/09/21 07:47:54;;;;;;;1.25;1.25;;;;;;;25.57;53.63;97145.72;5103148;28;20074;-61
2023/09/21 07:50:26;;;;;;;1.27;1.27;;;;;;;25.56;53.12;97142.09;5103635;28;20043;-72
2023/09/21 07:52:56;;;;;;;1.52;1.52;;;;;;;25.19;53.04;97064.56;5103855;28;20429;-65
2023/09/21 07:55:22;;;;;;;1.42;1.42;;;;;;;25.60;52.66;97060.47;5104238;28;20064;-67
2023/09/21 07:57:50;;;;;;;1.38;1.38;;;;;;;25.87;50.42;97039.84;5104374;28;20181;-66
2023/09/21 08:00:18;;;;;;;1.50;1.50;;;;;;;25.83;49.68;97000.25;5105030;28;20048;-68
2023/09/21 08:02:45;;;;;;;1.42;1.42;;;;;;;27.10;48.67;97140.25;5104703;28;20071;-69
2023/09/21 08:05:12;;;;;;;1.63;1.63;;;;;;;27.15;48.54;97116.06;5103274;28;20048;-66
2023/09/21 08:07:40;;;;;;;1.50;1.50;;;;;;;26.69;47.84;97078.41;5101413;28;20052;-65
2023/09/21 08:10:10;;;;;;;1.60;1.60;;;;;;;26.54;48.46;97112.31;5084600;28;20079;-66
2023/09/21 08:12:40;;;;;;;1.40;1.40;;;;;;;26.70;48.48;97052.34;5090408;28;20157;-64
2023/09/21 08:15:10;;;;;;;1.50;1.50;;;;;;;27.23;47.38;97061.19;5103249;28;20513;-62
2023/09/21 08:17:38;;;;;;;1.75;1.75;;;;;;;27.09;47.52;97044.81;5104368;28;20054;-63
2023/09/21 08:20:09;;;;;;;1.88;1.88;;;;;;;26.86;47.94;97099.53;5103161;28;20407;-65
2023/09/21 08:22:36;;;;;;;1.83;1.83;;;;;;;26.31;49.65;97112.16;5102830;28;20055;-60
2023/09/21 08:25:05;;;;;;;1.80;1.80;;;;;;;26.85;48.49;97106.50;5104203;28;20419;-67
2023/09/21 08:27:32;;;;;;;1.67;1.67;;;;;;;27.55;47.40;97123.03;5104277;28;20528;-62
2023/09/21 08:29:59;;;;;;;1.70;1.70;;;;;;;27.35;46.68;97068.75;5088472;28;20453;-64
2023/09/21 08:32:26;;;;;;;1.63;1.63;;;;;;;27.72;46.83;97117.75;5101656;28;20052;-61
2023/09/21 08:34:53;;;;;;;1.70;1.70;;;;;;;27.94;46.04;97076.38;5102136;28;20051;-65
2023/09/21 08:37:20;;;;;;;1.55;1.55;;;;;;;28.53;45.84;97110.78;5097830;28;20058;-72
2023/09/21 08:39:47;;;;;;;1.55;1.55;;;;;;;28.35;45.77;97120.25;5103591;28;20058;-63
2023/09/21 08:42:14;;;;;;;1.70;1.70;;;;;;;28.54;44.98;97120.91;5103176;28;20055;-70
2023/09/21 08:44:43;;;;;;;1.88;1.88;;;;;;;28.55;45.14;97119.66;5102458;28;20055;-64
2023/09/21 08:47:13;;;;;;;1.70;1.70;;;;;;;28.58;44.94;97090.16;5099772;27;20096;-70
2023/09/21 08:50:03;;;;;;;1.60;1.60;;;;;;;28.60;45.00;97074.13;5086439;28;20449;-68
2023/09/21 08:52:34;;;;;;;1.73;1.73;;;;;;;28.20;44.34;96984.69;5100791;28;20128;-60
2023/09/21 08:55:01;;;;;;;1.83;1.83;;;;;;;28.98;43.74;97110.34;5098463;28;20071;-62
2023/09/21 08:57:28;;;;;;;1.50;1.50;;;;;;;28.25;43.64;96969.78;5101161;28;20055;-61
2023/09/21 08:59:57;;;;;;;1.83;1.83;;;;;;;28.76;43.48;97078.56;5100579;28;20148;-63
2023/09/21 09:02:24;;;;;;;1.85;1.85;;;;;;;28.27;43.73;96995.69;5100991;28;20047;-68
2023/09/21 09:04:52;;;;;;;1.60;1.60;;;;;;;28.99;43.53;97074.88;5098160;28;20036;-70
2023/09/21 09:07:19;;;;;;;1.60;1.60;;;;;;;29.01;43.42;97072.28;5101190;28;20050;-64
2023/09/21 09:09:46;;;;;;;1.65;1.65;;;;;;;28.97;43.42;97089.63;5102665;28;20047;-64
2023/09/21 09:12:23;;;;;;;2.00;2.00;;;;;;;29.16;43.53;97095.94;5102803;28;20272;-62
2023/09/21 09:14:51;;;;;;;1.60;1.60;;;;;;;28.80;43.91;97079.94;5101655;28;20051;-61
2023/09/21 09:17:18;;;;;;;1.83;1.83;;;;;;;28.92;44.38;97092.34;5099733;28;20048;-62
2023/09/21 09:19:46;;;;;;;2.00;2.00;;;;;;;29.27;43.41;97102.63;5100755;28;20043;-57
2023/09/21 09:22:16;;;;;;;2.00;2.00;;;;;;;29.13;42.38;97014.19;5098071;28;20429;-61
2023/09/21 09:24:49;;;;;;;1.90;1.90;;;;;;;29.84;42.40;97105.09;5101310;28;20541;-60
2023/09/21 09:27:17;;;;;;;1.98;1.98;;;;;;;29.82;42.33;97102.75;5099584;28;20056;-61
2023/09/21 09:29:52;;;;;;;1.58;1.58;;;;;;;29.30;43.21;97106.56;5096893;28;20393;-63
2023/09/21 09:32:19;;;;;;;1.70;1.70;;;;;;;29.40;43.45;97102.31;5097755;28;20976;-64
2023/09/21 09:34:47;;;;;;;1.60;1.60;;;;;;;29.13;43.26;97109.09;5096759;28;20035;-61
2023/09/21 09:37:15;;;;;;;1.88;1.88;;;;;;;28.52;44.76;97069.28;5098968;28;20052;-64
2023/09/21 09:39:43;;;;;;;1.70;1.70;;;;;;;28.75;43.96;97065.59;5098621;28;20070;-62
2023/09/21 09:42:13;;;;;;;1.80;1.80;;;;;;;28.81;44.04;97098.66;5097535;28;20162;-62
2023/09/21 09:44:45;;;;;;;1.52;1.52;;;;;;;28.30;43.84;97011.81;5098856;28;20047;-62
2023/09/21 09:47:16;;;;;;;1.73;1.73;;;;;;;29.03;43.34;97070.53;5082056;28;20048;-61
2023/09/21 09:49:46;;;;;;;1.70;1.70;;;;;;;28.76;43.38;96998.72;5100963;28;20043;-62
2023/09/21 09:52:13;;;;;;;1.83;1.83;;;;;;;29.44;42.65;97065.78;5098755;28;20079;-62
2023/09/21 09:54:42;;;;;;;1.65;1.65;;;;;;;29.27;41.84;96951.38;5100071;28;20043;-60
2023/09/21 09:57:13;;;;;;;1.60;1.60;;;;;;;28.66;41.32;96795.59;5099205;28;20051;-73
2023/09/21 09:59:42;;;;;;;1.85;1.85;;;;;;;30.06;41.13;97057.66;5089051;28;20061;-67
2023/09/21 10:02:17;;;;;;;1.80;1.80;;;;;;;29.67;41.77;97030.59;5101147;28;20051;-64
2023/09/21 10:04:48;;;;;;;1.90;1.90;;;;;;;29.30;42.29;97001.75;5093607;28;20043;-67
2023/09/21 10:07:17;;;;;;;1.98;1.98;;;;;;;28.92;43.19;97016.13;5101792;28;20131;-69
2023/09/21 10:09:47;;;;;;;1.70;1.70;;;;;;;28.28;44.18;96997.28;5099088;28;20156;-62
2023/09/21 10:12:19;;;;;;;1.80;1.80;;;;;;;27.17;43.90;96806.31;5101781;28;20071;-66
2023/09/21 10:14:49;;;;;;;1.65;1.65;;;;;;;28.30;44.39;97034.63;5099581;28;20138;-63
2023/09/21 10:17:24;;;;;;;1.63;1.63;;;;;;;27.71;45.91;97017.31;5101667;28;20048;-67
2023/09/21 10:19:51;;;;;;;1.77;1.77;;;;;;;28.77;44.68;97051.66;5102775;28;20051;-68
2023/09/21 10:22:22;;;;;;;1.85;1.85;;;;;;;29.38;43.41;97039.22;5103627;27;20558;-65
2023/09/21 10:24:53;;;;;;;1.95;1.95;;;;;;;29.47;42.83;97041.94;5105936;28;20130;-61
2023/09/21 10:27:24;;;;;;;1.67;1.67;;;;;;;28.87;43.94;97021.72;5102023;27;20060;-64
2023/09/21 10:29:55;;;;;;;1.80;1.80;;;;;;;29.47;43.20;97044.81;5097299;27;20056;-64
2023/09/21 10:32:25;;;;;;;1.90;1.90;;;;;;;28.81;44.38;97047.31;5104952;28;20123;-60
2023/09/21 10:34:52;;;;;;;1.70;1.70;;;;;;;29.13;43.67;97028.44;5102594;27;20442;-62
2023/09/21 10:37:26;;;;;;;2.00;2.00;;;;;;;29.23;43.04;96998.50;5103833;28;20159;-62
2023/09/21 10:39:59;;;;;;;1.60;1.60;;;;;;;29.05;43.65;96981.59;5106023;27;20074;-62
2023/09/21 10:42:33;;;;;;;;;;;;;;;29.52;42.81;97030.63;5106632;28;20047;-62
2023/09/21 10:45:03;;;;;;;1.98;1.98;;;;;;;29.97;42.11;97023.47;5105268;28;20044;-66
2023/09/21 10:47:30;;;;;;;1.63;1.63;;;;;;;30.44;41.56;97017.34;5104778;28;20431;-67
2023/09/21 10:50:14;;;;;;;1.55;1.55;;;;;;;30.56;41.16;96990.41;5105494;28;20083;-61
2023/09/21 10:52:42;;;;;;;;;;;;;;;30.61;41.41;97015.44;5105722;28;20071;-68
2023/09/21 10:55:12;;;;;;;1.95;1.95;;;;;;;30.19;41.74;97006.59;5105024;28;19955;-65
2023/09/21 10:57:41;;;;;;;1.90;1.90;;;;;;;30.16;41.88;96984.75;5106129;28;20803;-68
2023/09/21 11:00:08;;;;;;;1.83;1.83;;;;;;;29.98;41.66;96967.13;5106227;28;20051;-67
2023/09/21 11:02:40;;;;;;;1.67;1.67;;;;;;;29.53;42.89;96971.44;5106251;28;20292;-62
2023/09/21 11:05:08;;;;;;;1.98;1.98;;;;;;;29.63;42.51;96964.31;5106108;28;20056;-67
2023/09/21 11:07:36;;;;;;;1.83;1.83;;;;;;;29.67;42.97;96999.16;5105848;28;20054;-62
2023/09/21 11:10:06;;;;;;;1.92;1.92;;;;;;;30.23;41.91;96995.78;5105179;28;21200;-62
2023/09/21 11:12:34;;;;;;;1.70;1.70;;;;;;;30.16;41.68;96986.84;5105799;28;20051;-67
2023/09/21 11:15:03;;;;;;;1.70;1.70;;;;;;;30.22;40.94;96897.03;5106042;28;20047;-66
2023/09/21 11:17:30;;;;;;;1.65;1.65;;;;;;;30.59;40.26;96914.25;5105981;28;20051;-64
2023/09/21 11:19:58;;;;;;;1.67;1.67;;;;;;;30.29;40.46;96942.31;5104605;28;20039;-64
2023/09/21 11:22:26;;;;;;;1.98;1.98;;;;;;;29.97;40.22;96886.31;5103766;28;20572;-67
2023/09/21 11:24:54;;;;;;;1.90;1.90;;;;;;;30.62;40.55;96965.50;5105082;28;20528;-63
2023/09/21 11:27:26;;;;;;;1.90;1.90;;;;;;;30.49;40.37;96970.06;5104854;28;20051;-66
2023/09/21 11:29:53;;;;;;;2.00;2.00;;;;;;;28.63;40.87;96704.59;5089180;27;20083;-66
2023/09/21 11:32:22;;;;;;;1.80;1.80;;;;;;;29.60;40.66;96908.19;5100821;28;20051;-68
2023/09/21 11:34:57;;;;;;;1.75;1.75;;;;;;;29.75;40.30;96846.09;5096921;28;20063;-67
2023/09/21 11:37:28;;;;;;;1.92;1.92;;;;;;;29.35;41.60;96926.03;5098852;27;20054;-65
2023/09/21 11:39:55;;;;;;;1.58;1.58;;;;;;;30.38;40.56;96950.72;5102315;27;20058;-69
2023/09/21 11:42:25;;;;;;;1.60;1.60;;;;;;;29.87;41.26;96887.78;5103805;27;20055;-69
2023/09/21 11:44:52;;;;;;;1.95;1.95;;;;;;;30.12;40.59;96914.81;5105157;28;20055;-71